createdAt,value
2022-09-04T00:01:23.649Z,99.20
2022-09-04T00:03:58.477Z,97.40
2022-09-04T00:07:14.369Z,97.90
2022-09-04T00:10:20.364Z,97.20
2022-09-04T00:13:04.480Z,81.40
2022-09-04T00:16:09.006Z,96.30
2022-09-04T00:19:08.198Z,97.40
2022-09-04T00:24:26.037Z,96.50
2022-09-04T00:27:27.803Z,97.50
2022-09-04T00:30:16.709Z,96.60
2022-09-04T00:33:03.913Z,96.80
2022-09-04T00:36:02.374Z,81.10
2022-09-04T00:38:46.136Z,97.70
2022-09-04T00:42:12.127Z,97.30
2022-09-04T00:45:27.780Z,83.90
2022-09-04T00:48:52.631Z,99.80
2022-09-04T00:51:37.974Z,97.90
2022-09-04T00:54:52.584Z,98.50
2022-09-04T00:57:48.074Z,98.60
2022-09-04T01:00:20.607Z,98.00
2022-09-04T01:03:48.513Z,97.10
2022-09-04T01:07:01.198Z,99.90
2022-09-04T01:09:50.819Z,99.90
2022-09-04T01:13:03.930Z,98.40
2022-09-04T01:16:22.107Z,99.90
2022-09-04T01:19:15.354Z,99.30
2022-09-04T01:22:46.558Z,98.10
2022-09-04T01:25:30.350Z,98.80
2022-09-04T01:28:16.827Z,98.70
2022-09-04T01:31:01.386Z,98.00
2022-09-04T01:33:48.185Z,98.40
2022-09-04T01:36:41.785Z,99.90
2022-09-04T01:39:09.845Z,83.10
2022-09-04T01:41:51.406Z,98.50
2022-09-04T01:44:19.355Z,99.60
2022-09-04T01:47:25.811Z,98.80
2022-09-04T01:50:11.203Z,97.10
2022-09-04T01:53:01.985Z,97.40
2022-09-04T01:55:41.774Z,81.50
2022-09-04T01:59:11.615Z,98.10
2022-09-04T02:02:08.143Z,98.60
2022-09-04T02:05:48.374Z,98.60
2022-09-04T02:08:55.205Z,96.70
2022-09-04T02:11:28.524Z,99.10
2022-09-04T02:14:40.894Z,99.90
2022-09-04T02:17:20.931Z,98.20
2022-09-04T02:20:23.900Z,99.50
2022-09-04T02:23:07.541Z,98.80
2022-09-04T02:26:02.124Z,84.70
2022-09-04T02:29:15.638Z,99.90
2022-09-04T02:32:12.136Z,99.90
2022-09-04T02:35:04.157Z,99.90
2022-09-04T02:38:05.632Z,83.20
2022-09-04T02:40:56.343Z,98.10
2022-09-04T02:44:22.262Z,91.00
2022-09-04T02:47:25.261Z,82.80
2022-09-04T02:50:47.948Z,99.80
2022-09-04T02:54:02.290Z,99.40
2022-09-04T02:57:00.086Z,99.80
2022-09-04T03:00:21.505Z,99.60
2022-09-04T03:05:43.094Z,99.70
2022-09-04T03:08:43.713Z,98.90
2022-09-04T03:11:35.061Z,99.60
2022-09-04T03:14:16.705Z,83.50
2022-09-04T03:17:21.516Z,98.90
2022-09-04T03:20:13.877Z,84.60
2022-09-04T03:26:10.053Z,99.80
2022-09-04T03:29:15.351Z,99.90
2022-09-04T03:32:25.932Z,99.90
2022-09-04T03:35:08.063Z,99.90
2022-09-04T03:38:05.882Z,99.90
2022-09-04T03:40:50.158Z,99.90
2022-09-04T03:44:23.051Z,92.10
2022-09-04T03:47:32.216Z,99.90
2022-09-04T03:50:44.769Z,99.90
2022-09-04T03:53:44.705Z,93.10
2022-09-04T03:56:54.073Z,99.90
2022-09-04T04:00:18.161Z,91.90
2022-09-04T04:03:49.950Z,99.90
2022-09-04T04:06:46.715Z,89.40
2022-09-04T04:10:12.558Z,99.90
2022-09-04T04:13:23.238Z,91.10
2022-09-04T04:16:40.364Z,99.90
2022-09-04T04:19:36.768Z,90.00
2022-09-04T04:23:05.052Z,89.10
2022-09-04T04:26:07.201Z,99.90
2022-09-04T04:29:08.689Z,99.90
2022-09-04T04:32:10.891Z,88.60
2022-09-04T04:35:11.512Z,99.90
2022-09-04T04:38:11.829Z,99.90
2022-09-04T04:41:55.643Z,99.90
2022-09-04T04:45:41.826Z,86.60
2022-09-04T04:48:46.521Z,99.90
2022-09-04T04:51:57.180Z,99.90
2022-09-04T04:55:41.335Z,99.90
2022-09-04T04:59:06.785Z,99.90
2022-09-04T05:01:56.176Z,99.90
2022-09-04T05:07:37.316Z,99.90
2022-09-04T05:10:47.210Z,99.90
2022-09-04T05:13:48.722Z,99.90
2022-09-04T05:16:59.349Z,99.90
2022-09-04T05:19:47.382Z,89.40
2022-09-04T05:22:42.486Z,99.90
2022-09-04T05:26:00.785Z,99.90
2022-09-04T05:29:06.256Z,99.90
2022-09-04T05:32:28.694Z,99.90
2022-09-04T05:35:45.821Z,99.90
2022-09-04T05:38:31.046Z,91.10
2022-09-04T05:41:26.375Z,99.90
2022-09-04T05:44:58.658Z,99.90
2022-09-04T05:47:50.315Z,91.40
2022-09-04T05:51:02.312Z,99.90
2022-09-04T05:57:21.465Z,90.50
2022-09-04T06:00:14.564Z,99.90
2022-09-04T06:03:34.955Z,90.30
2022-09-04T06:06:52.884Z,90.70
2022-09-04T06:09:53.932Z,99.90
2022-09-04T06:13:01.507Z,99.90
2022-09-04T06:16:29.737Z,99.90
2022-09-04T06:19:39.427Z,91.90
2022-09-04T06:22:29.504Z,99.90
2022-09-04T06:25:37.654Z,99.90
2022-09-04T06:28:55.376Z,99.90
2022-09-04T06:31:39.158Z,94.20
2022-09-04T06:34:43.647Z,99.90
2022-09-04T06:38:23.152Z,99.90
2022-09-04T06:41:47.739Z,99.90
2022-09-04T06:45:05.019Z,93.10
2022-09-04T06:48:13.623Z,99.90
2022-09-04T06:51:52.506Z,99.90
2022-09-04T06:54:34.860Z,99.90
2022-09-04T06:57:40.056Z,99.90
2022-09-04T07:00:12.886Z,97.80
2022-09-04T07:03:38.594Z,99.90
2022-09-04T07:12:29.045Z,99.90
2022-09-04T07:15:48.373Z,99.90
2022-09-04T07:18:56.385Z,99.60
2022-09-04T07:21:43.339Z,99.90
2022-09-04T07:30:20.303Z,99.90
2022-09-04T07:33:02.916Z,99.90
2022-09-04T07:35:44.701Z,99.90
2022-09-04T07:41:49.494Z,99.90
2022-09-04T07:44:33.914Z,99.90
2022-09-04T07:47:43.095Z,99.90
2022-09-04T07:51:03.442Z,99.50
2022-09-04T07:54:22.731Z,99.90
2022-09-04T07:58:03.273Z,99.90
2022-09-04T08:01:08.222Z,99.90
2022-09-04T08:04:22.861Z,99.90
2022-09-04T08:10:14.538Z,99.90
2022-09-04T08:13:22.482Z,99.90
2022-09-04T08:16:38.832Z,99.90
2022-09-04T08:21:53.208Z,99.90
2022-09-04T08:24:46.113Z,99.90
2022-09-04T08:30:21.604Z,99.90
2022-09-04T08:33:33.225Z,99.90
2022-09-04T08:36:38.413Z,99.90
2022-09-04T08:42:20.022Z,99.90
2022-09-04T08:45:46.602Z,99.90
2022-09-04T08:48:52.751Z,99.90
2022-09-04T08:54:57.762Z,99.90
2022-09-04T08:58:07.283Z,99.90
2022-09-04T09:01:23.789Z,99.90
2022-09-04T09:04:36.424Z,99.90
2022-09-04T09:07:43.986Z,99.90
2022-09-04T09:11:03.221Z,99.90
2022-09-04T09:16:50.547Z,99.90
2022-09-04T09:20:29.179Z,99.90
2022-09-04T09:23:21.472Z,99.90
2022-09-04T09:26:26.746Z,99.90
2022-09-04T09:36:09.413Z,99.90
2022-09-04T09:39:53.860Z,99.90
2022-09-04T09:42:59.457Z,99.30
2022-09-04T09:46:02.652Z,99.90
2022-09-04T09:52:43.255Z,99.90
2022-09-04T09:55:53.862Z,99.90
2022-09-04T09:59:26.833Z,99.80
2022-09-04T10:02:30.016Z,98.80
2022-09-04T10:09:30.342Z,98.40
2022-09-04T10:18:02.808Z,98.90
2022-09-04T10:20:55.878Z,99.70
2022-09-04T10:23:36.903Z,98.90
2022-09-04T10:26:15.713Z,97.70
2022-09-04T10:29:14.364Z,97.60
2022-09-04T10:32:35.921Z,98.50
2022-09-04T10:35:47.169Z,97.10
2022-09-04T10:39:28.533Z,99.60
2022-09-04T10:48:36.656Z,97.50
2022-09-04T10:51:52.580Z,96.20
2022-09-04T10:57:52.577Z,99.90
2022-09-04T11:00:30.658Z,93.40
2022-09-04T11:09:36.836Z,93.00
2022-09-04T11:12:25.038Z,99.90
2022-09-04T11:15:16.343Z,91.40
2022-09-04T11:18:33.328Z,99.90
2022-09-04T11:28:12.945Z,83.10
2022-09-04T11:31:07.077Z,85.90
2022-09-04T11:34:14.048Z,85.50
2022-09-04T11:37:15.963Z,82.60
2022-09-04T11:40:18.994Z,75.70
2022-09-04T11:43:37.509Z,99.90
2022-09-04T11:47:16.505Z,81.90
2022-09-04T11:53:13.145Z,99.70
2022-09-04T11:58:51.385Z,97.20
2022-09-04T12:02:15.849Z,98.00
2022-09-04T12:05:39.195Z,76.30
2022-09-04T12:09:05.048Z,75.90
2022-09-04T12:15:22.276Z,97.70
2022-09-04T12:21:43.279Z,93.70
2022-09-04T12:28:05.021Z,70.80
2022-09-04T12:31:51.683Z,92.80
2022-09-04T12:38:08.953Z,96.10
2022-09-04T12:40:47.876Z,94.80
2022-09-04T12:44:02.076Z,95.10
2022-09-04T12:47:19.188Z,70.90
2022-09-04T12:50:34.842Z,71.80
2022-09-04T12:54:04.756Z,69.70
2022-09-04T12:57:08.292Z,94.10
2022-09-04T13:00:10.778Z,92.70
2022-09-04T13:02:49.463Z,93.20
2022-09-04T13:06:06.126Z,92.70
2022-09-04T13:08:57.698Z,92.90
2022-09-04T13:12:01.859Z,92.40
2022-09-04T13:15:19.431Z,64.10
2022-09-04T13:18:21.202Z,89.00
2022-09-04T13:21:23.377Z,90.70
2022-09-04T13:27:32.411Z,59.30
2022-09-04T13:30:25.374Z,58.60
2022-09-04T13:33:16.550Z,84.90
2022-09-04T13:36:19.071Z,59.50
2022-09-04T13:39:01.984Z,59.00
2022-09-04T13:45:15.254Z,59.30
2022-09-04T13:47:58.086Z,83.90
2022-09-04T13:50:44.321Z,84.50
2022-09-04T13:53:24.556Z,86.10
2022-09-04T13:55:59.263Z,62.20
2022-09-04T13:58:33.491Z,85.80
2022-09-04T14:01:13.527Z,60.60
2022-09-04T14:04:00.709Z,86.80
2022-09-04T14:06:32.388Z,59.30
2022-09-04T14:09:04.663Z,86.90
2022-09-04T14:12:19.063Z,57.40
2022-09-04T14:18:48.628Z,82.60
2022-09-04T14:22:36.061Z,58.80
2022-09-04T14:25:38.298Z,82.90
2022-09-04T14:28:51.165Z,81.90
2022-09-04T14:32:05.830Z,61.10
2022-09-04T14:34:57.107Z,60.90
2022-09-04T14:38:32.544Z,60.50
2022-09-04T14:47:02.096Z,79.30
2022-09-04T14:49:31.853Z,59.70
2022-09-04T14:52:14.423Z,59.40
2022-09-04T14:54:46.122Z,88.10
2022-09-04T14:57:50.282Z,59.50
2022-09-04T15:00:20.946Z,61.00
2022-09-04T15:03:15.671Z,86.60
2022-09-04T15:05:55.771Z,87.80
2022-09-04T15:08:40.654Z,90.20
2022-09-04T15:11:31.643Z,60.30
2022-09-04T15:14:32.959Z,86.90
2022-09-04T15:17:06.266Z,60.70
2022-09-04T15:19:55.083Z,59.70
2022-09-04T15:22:33.867Z,60.30
2022-09-04T15:25:56.778Z,58.70
2022-09-04T15:28:30.909Z,61.10
2022-09-04T15:31:27.692Z,64.80
2022-09-04T15:34:28.739Z,61.90
2022-09-04T15:37:23.003Z,62.70
2022-09-04T15:40:13.200Z,62.30
2022-09-04T15:43:09.783Z,63.20
2022-09-04T15:45:57.262Z,90.70
2022-09-04T15:49:03.103Z,68.00
2022-09-04T15:52:39.842Z,64.50
2022-09-04T15:55:31.081Z,63.50
2022-09-04T15:58:19.675Z,65.60
2022-09-04T16:01:16.775Z,63.60
2022-09-04T16:04:12.617Z,93.00
2022-09-04T16:09:36.462Z,64.70
2022-09-04T16:12:24.152Z,65.40
2022-09-04T16:15:22.336Z,65.70
2022-09-04T16:17:55.500Z,67.60
2022-09-04T16:20:58.226Z,66.50
2022-09-04T16:26:19.272Z,68.00
2022-09-04T16:28:55.844Z,69.80
2022-09-04T16:31:32.054Z,69.30
2022-09-04T16:34:32.490Z,68.90
2022-09-04T16:37:36.090Z,70.60
2022-09-04T16:40:39.442Z,72.40
2022-09-04T16:43:25.423Z,72.10
2022-09-04T16:48:52.836Z,74.60
2022-09-04T16:51:49.193Z,70.80
2022-09-04T16:54:33.385Z,96.50
2022-09-04T16:57:18.665Z,73.70
2022-09-04T17:00:14.733Z,70.60
2022-09-04T17:03:16.825Z,70.30
2022-09-04T17:06:23.613Z,73.90
2022-09-04T17:09:28.339Z,74.70
2022-09-04T17:12:17.787Z,75.70
2022-09-04T17:15:21.720Z,75.30
2022-09-04T17:28:58.087Z,75.80
2022-09-04T17:29:53.372Z,75.10
2022-09-04T17:40:54.949Z,76.90
2022-09-04T17:42:09.343Z,74.70
2022-09-04T17:45:12.023Z,78.50
2022-09-04T17:47:42.727Z,76.70
2022-09-04T17:50:24.497Z,76.10
2022-09-04T17:55:38.855Z,79.30
2022-09-04T17:59:07.744Z,78.60
2022-09-04T18:04:47.087Z,79.40
2022-09-04T18:08:09.977Z,82.10
2022-09-04T18:10:45.796Z,79.70
2022-09-04T18:14:02.083Z,77.70
2022-09-04T18:16:35.971Z,77.80
2022-09-04T18:19:32.441Z,79.10
2022-09-04T18:22:33.556Z,79.30
2022-09-04T18:25:50.843Z,78.10
2022-09-04T18:30:10.055Z,82.20
2022-09-04T18:37:13.024Z,83.00
2022-09-04T18:37:17.614Z,79.70
2022-09-04T18:49:23.835Z,84.50
2022-09-04T18:50:28.112Z,83.40
2022-09-04T18:50:45.997Z,80.70
2022-09-04T18:54:30.409Z,80.00
2022-09-04T19:00:08.195Z,83.10
2022-09-04T19:02:53.797Z,83.60
2022-09-04T19:07:57.282Z,86.70
2022-09-04T19:11:17.464Z,81.30
2022-09-04T19:14:10.600Z,96.20
2022-09-04T19:16:55.458Z,85.20
2022-09-04T19:19:35.613Z,90.80
2022-09-04T19:25:27.416Z,82.70
2022-09-04T19:28:18.799Z,83.10
2022-09-04T19:33:42.014Z,87.20
2022-09-04T19:36:23.403Z,90.30
2022-09-04T19:45:44.403Z,89.50
2022-09-04T19:46:17.788Z,90.50
2022-09-04T19:52:48.255Z,90.50
2022-09-04T19:53:30.629Z,90.00
2022-09-04T19:59:04.549Z,90.00
2022-09-04T20:02:03.261Z,90.30
2022-09-04T20:04:41.739Z,99.90
2022-09-04T20:10:50.399Z,92.60
2022-09-04T20:13:48.888Z,92.50
2022-09-04T20:16:30.837Z,90.10
2022-09-04T20:19:46.265Z,93.30
2022-09-04T20:22:46.245Z,91.90
2022-09-04T20:26:04.272Z,99.90
2022-09-04T20:29:17.876Z,95.10
2022-09-04T20:37:44.595Z,95.40
2022-09-04T20:40:42.061Z,96.50
2022-09-04T20:43:27.462Z,96.60
2022-09-04T20:53:05.208Z,97.60
2022-09-04T21:03:11.045Z,93.10
2022-09-04T21:03:21.971Z,96.30
2022-09-04T21:07:33.431Z,96.40
2022-09-04T21:10:31.897Z,94.20
2022-09-04T21:13:14.066Z,95.20
2022-09-04T21:21:51.905Z,93.70
2022-09-04T21:31:09.367Z,94.20
2022-09-04T21:34:24.729Z,95.40
2022-09-04T21:37:13.132Z,94.30
2022-09-04T21:40:31.038Z,94.10
2022-09-04T21:58:58.628Z,90.90
2022-09-04T22:02:27.527Z,94.50
2022-09-04T22:02:57.635Z,93.10
2022-09-04T22:13:38.743Z,94.40
2022-09-04T22:15:11.326Z,94.10
2022-09-04T22:18:40.456Z,94.50
2022-09-04T22:21:55.430Z,93.50
2022-09-04T22:25:35.279Z,93.20
2022-09-04T22:32:06.842Z,93.30
2022-09-04T22:35:17.150Z,92.80
2022-09-04T22:43:46.819Z,93.60
2022-09-04T22:52:37.675Z,96.20
2022-09-04T22:56:06.641Z,96.00
2022-09-04T23:02:14.120Z,94.20
2022-09-04T23:05:20.813Z,94.30
2022-09-04T23:13:52.518Z,94.60
2022-09-04T23:15:23.429Z,96.30
2022-09-04T23:22:35.469Z,95.40
2022-09-04T23:26:36.245Z,95.60
2022-09-04T23:29:08.558Z,96.70
2022-09-04T23:35:14.297Z,94.20
2022-09-04T23:40:59.276Z,95.40
2022-09-04T23:47:47.031Z,96.10
